DW8569 Weather Reports


time (UTC)temp
C
wind
direction
speed
KPH
gust
KPH
rain 1hr
cm
rain 24hr
cm
rain mn
cm
humidity
%
barometer
mb
20190423023153 14 308 0.0 3.2 0.00 0.38 0.38 94 1016.2
20190423021659 14 308 0.0 0.0 0.00 0.38 0.38 94 1016.2
20190423020113 14 308 0.0 1.6 0.00 0.38 0.38 94 1016.2
20190423014723 14 308 0.0 0.0 0.00 0.38 0.38 94 1015.9
20190423013214 14 308 0.0 0.0 0.03 0.38 0.38 94 1015.8
20190423011651 14 308 0.0 0.0 0.03 0.38 0.38 94 1015.9
20190423010103 14 308 0.0 0.0 0.03 0.38 0.38 94 1015.7
20190423004611 15 308 0.0 1.6 0.03 0.38 0.38 93 1015.4
20190423003235 15 308 0.0 0.0 0.03 0.36 0.36 93 1015.4
20190423001723 15 308 0.0 0.0 0.03 0.36 0.36 93 1015.2
20190423000116 15 308 0.0 0.0 0.03 0.36 0.36 93 1015.0
20190422234629 15 308 0.0 0.0 0.03 0.36 0.36 92 1014.9
20190422233202 15 308 0.0 0.0 0.00 0.33 0.33 92 1014.9
20190422231642 15 308 0.0 1.6 0.03 0.33 0.33 92 1014.9
20190422230221 15 308 0.0 1.6 0.03 0.33 0.33 92 1014.9
20190422224601 15 308 0.0 1.6 0.05 0.33 0.33 92 1015.0
20190422223138 15 308 0.0 1.6 0.05 0.33 0.33 91 1014.8
20190422221732 15 308 0.0 3.2 0.03 0.30 0.30 91 1014.5
20190422220152 15 296 4.8 12.9 0.05 0.30 0.30 91 1014.4
20190422214648 15 322 0.0 11.3 0.05 0.28 0.28 91 1014.6
20190422213106 15 314 1.6 6.4 0.05 0.28 0.28 91 1014.7
20190422211645 15 306 1.6 9.7 0.08 0.28 0.28 91 1014.6
20190422210120 15 312 1.6 6.4 0.05 0.25 0.25 90 1014.8
20190422204610 15 317 0.0 1.6 0.05 0.23 0.23 90 1014.9
20190422203119 15 317 0.0 1.6 0.08 0.23 0.23 90 1015.0
20190422201623 15 317 0.0 0.0 0.08 0.20 0.20 89 1015.2
20190422200112 15 317 0.0 0.0 0.10 0.20 0.20 89 1015.2
20190422194600 15 317 0.0 1.6 0.10 0.18 0.18 87 1015.2
20190422193151 16 317 0.0 1.6 0.10 0.15 0.15 84 1015.1
20190422191617 16 317 0.0 1.6 0.10 0.13 0.13 85 1015.1
20190422190148 15 317 0.0 1.6 0.08 0.10 0.10 85 1015.1
20190422184606 16 317 0.0 3.2 0.08 0.08 0.08 84 1015.2
20190422183109 16 318 0.0 12.9 0.05 0.05 0.05 82 1014.8
20190422181600 16 305 0.0 4.8 0.03 0.03 0.03 82 1015.1
20190422180046 16 312 0.0 3.2 0.03 0.03 0.03 79 1015.6
20190422174547 17 311 1.6 11.3 0.00 0.00 0.00 74 1015.6
20190422173039 17 326 1.6 8.0 0.00 0.00 0.00 72 1015.6
20190422171537 17 203 0.0 3.2 0.00 0.00 0.00 72 1015.9
20190422170049 17 203 0.0 4.8 0.00 0.00 0.00 73 1016.0
20190422164546 16 278 0.0 9.7 0.00 0.00 0.00 77 1016.1
20190422163019 16 314 0.0 6.4 0.00 0.00 0.00 79 1016.3
20190422161512 16 248 0.0 4.8 0.00 0.00 0.00 77 1016.4
20190422160003 -17 0.0 0.0 0.00 0.00 0.00
20190422094618 10 138 0.0 0.0 0.00 0.00 0.00 90 1017.3
20190422093219 10 138 0.0 0.0 0.00 0.00 0.00 90 1017.5
20190422090126 10 138 0.0 0.0 0.00 0.00 0.00 90 1017.5
20190422084609 10 138 0.0 0.0 0.00 0.00 0.00 90 1017.3
20190422083100 11 138 0.0 0.0 0.00 0.00 0.00 90 1017.1
20190422081543 10 138 0.0 1.6 0.00 0.00 0.00 91 1017.0
20190422080159 10 138 0.0 0.0 0.00 0.00 0.00 90 1016.9
20190422074550 10 138 0.0 0.0 0.00 0.00 0.00 90 1017.0
20190422073114 10 138 0.0 0.0 0.00 0.00 0.00 89 1017.2
20190422071541 11 138 0.0 0.0 0.00 0.00 0.00 89 1017.3
20190422070121 11 138 0.0 0.0 0.00 0.00 0.00 89 1017.3
20190422064556 11 138 0.0 0.0 0.00 0.00 0.00 89 1017.5
20190422063123 11 138 0.0 0.0 0.00 0.00 0.00 88 1017.7
20190422061534 11 138 0.0 0.0 0.00 0.00 0.00 88 1017.8
20190422060029 11 138 0.0 0.0 0.00 0.00 0.00 88 1017.9
20190422054530 11 138 0.0 0.0 0.00 0.00 0.00 88 1017.9
20190422053051 11 138 0.0 1.6 0.00 0.00 0.00 88 1018.1
20190422051522 11 138 0.0 4.8 0.00 0.00 0.00 87 1018.3
20190422050023 11 139 0.0 8.0 0.00 0.00 0.00 87 1018.5
20190422044514 11 132 0.0 6.4 0.00 0.00 0.00 87 1018.6
20190422043010 11 136 0.0 4.8 0.00 0.00 0.00 86 1018.5
20190422041535 12 142 0.0 0.0 0.00 0.00 0.00 86 1018.5
20190422040022 12 142 0.0 0.0 0.00 0.00 0.00 86 1018.5
20190422034504 12 142 0.0 0.0 0.00 0.00 0.00 86 1018.3
20190422033014 12 142 0.0 0.0 0.00 0.00 0.00 86 1018.1
20190422031505 12 142 0.0 0.0 0.00 0.00 0.00 86 1018.1
20190422030008 11 142 0.0 4.8 0.00 0.00 0.00 87 1017.8
20190422024508 11 142 0.0 1.6 0.00 0.00 0.00 87 1017.7